Time;durP1;ratioP1;P1;durP2;ratioP2;P2;SDS_P1;SDS_P2;PMS_P1;PMS_P2;Temp;Humidity;BMP_temperature;BMP_pressure;BME280_temperature;BME280_humidity;BME280_pressure;Samples;Min_cycle;Max_cycle;Signal;HPM_P1;HPM_P2
2022/12/27 00:01:14;;;;;;;2.10;1.30;;;4.10;99.90;;;;;;5073808;28;20167;-76
2022/12/27 00:03:40;;;;;;;3.20;1.40;;;4.10;99.90;;;;;;5074089;28;20190;-77
2022/12/27 00:06:10;;;;;;;5.10;1.73;;;4.00;99.90;;;;;;5073487;28;20433;-76
2022/12/27 00:08:36;;;;;;;2.67;1.20;;;4.10;99.90;;;;;;5060089;28;20420;-79
2022/12/27 00:11:10;;;;;;;4.60;1.73;;;4.10;99.90;;;;;;5055848;28;20772;-76
2022/12/27 00:13:35;;;;;;;2.63;1.10;;;4.10;99.90;;;;;;5074340;28;20253;-76
2022/12/27 00:16:06;;;;;;;3.40;1.80;;;4.10;99.90;;;;;;5055668;28;20467;-76
2022/12/27 00:18:32;;;;;;;3.63;1.10;;;4.10;99.90;;;;;;5056062;28;20609;-76
2022/12/27 00:20:59;;;;;;;1.60;1.20;;;4.10;99.90;;;;;;5055770;28;20488;-76
2022/12/27 00:23:25;;;;;;;3.37;1.23;;;4.10;99.90;;;;;;5072572;28;20243;-76
2022/12/27 00:25:58;;;;;;;3.40;2.23;;;4.10;99.90;;;;;;5072436;28;20420;-76
2022/12/27 00:28:24;;;;;;;6.37;1.80;;;4.10;99.90;;;;;;5075748;28;20897;-76
2022/12/27 00:30:54;;;;;;;6.40;1.87;;;4.10;99.90;;;;;;5072453;28;20408;-76
2022/12/27 00:33:19;;;;;;;2.83;1.00;;;4.10;99.90;;;;;;5072590;28;20174;-75
2022/12/27 00:35:45;;;;;;;2.73;1.37;;;4.10;99.90;;;;;;5072024;28;20630;-78
2022/12/27 00:38:10;;;;;;;7.23;1.57;;;4.10;99.90;;;;;;5072660;28;20295;-76
2022/12/27 00:40:38;;;;;;;3.10;1.60;;;4.10;99.90;;;;;;5073435;28;20170;-76
2022/12/27 00:43:04;;;;;;;2.80;1.20;;;4.10;99.90;;;;;;5072140;28;20190;-76
2022/12/27 00:45:30;;;;;;;3.03;1.50;;;4.10;99.90;;;;;;5054122;28;20440;-77
2022/12/27 00:47:55;;;;;;;1.40;0.87;;;4.10;99.90;;;;;;5055971;28;20170;-76
2022/12/27 00:50:21;;;;;;;4.17;1.70;;;4.10;99.90;;;;;;5067695;28;20171;-76
2022/12/27 00:52:46;;;;;;;3.77;1.47;;;4.10;99.90;;;;;;5060888;28;20174;-76
2022/12/27 00:55:12;;;;;;;5.17;1.47;;;4.10;99.90;;;;;;5050509;28;20668;-76
2022/12/27 00:57:37;;;;;;;3.50;1.50;;;4.00;99.90;;;;;;5052047;28;20167;-76
2022/12/27 01:00:05;;;;;;;3.90;1.60;;;4.00;99.90;;;;;;5050688;28;20213;-76
2022/12/27 01:02:30;;;;;;;6.00;1.30;;;4.00;99.90;;;;;;5052327;28;20202;-75
2022/12/27 01:04:56;;;;;;;4.33;1.90;;;4.00;99.90;;;;;;5053536;28;20493;-76
2022/12/27 01:07:22;;;;;;;1.83;1.27;;;4.00;99.90;;;;;;5054177;28;20158;-76
2022/12/27 01:09:48;;;;;;;2.80;1.20;;;4.00;99.90;;;;;;5072183;28;20162;-77
2022/12/27 01:12:13;;;;;;;3.60;1.40;;;4.00;99.90;;;;;;5071943;28;20415;-77
2022/12/27 01:14:39;;;;;;;9.90;1.80;;;4.00;99.90;;;;;;5071462;28;20182;-76
2022/12/27 01:17:05;;;;;;;5.47;1.67;;;3.90;99.90;;;;;;5071808;28;20163;-76
2022/12/27 01:19:30;;;;;;;5.03;2.10;;;3.90;99.90;;;;;;5072121;28;20166;-76
2022/12/27 01:21:56;;;;;;;4.27;1.60;;;3.90;99.90;;;;;;5071745;28;20579;-76
2022/12/27 01:24:21;;;;;;;4.10;1.50;;;3.90;99.90;;;;;;5071595;28;20219;-76
2022/12/27 01:26:47;;;;;;;1.70;1.10;;;3.90;99.90;;;;;;5071716;28;20174;-77
2022/12/27 01:29:12;;;;;;;5.37;1.20;;;3.90;99.90;;;;;;5053616;28;20178;-77
2022/12/27 01:31:38;;;;;;;2.73;1.50;;;3.90;99.90;;;;;;5071985;28;20570;-76
2022/12/27 01:34:03;;;;;;;3.23;1.67;;;3.90;99.90;;;;;;5072617;28;20197;-76
2022/12/27 01:36:30;;;;;;;3.47;1.30;;;4.00;99.90;;;;;;5053813;28;20197;-74
2022/12/27 01:38:57;;;;;;;1.80;1.20;;;4.00;99.90;;;;;;5053832;28;20170;-76
2022/12/27 01:44:38;;;;;;;1.50;1.20;;;4.00;99.90;;;;;;5071483;28;20813;-76
2022/12/27 01:47:19;;;;;;;4.20;1.70;;;4.10;99.90;;;;;;5053670;28;20917;-76
2022/12/27 01:50:18;;;;;;;1.80;1.30;;;4.10;99.90;;;;;;5071562;28;20385;-76
2022/12/27 01:52:55;;;;;;;3.53;1.73;;;4.10;99.90;;;;;;5060685;28;20440;-76
2022/12/27 01:55:23;;;;;;;9.83;1.50;;;4.10;99.90;;;;;;5053904;28;20436;-76
2022/12/27 01:57:52;;;;;;;2.60;1.70;;;4.10;99.90;;;;;;5057298;28;20917;-76
2022/12/27 02:00:18;;;;;;;5.00;1.50;;;4.20;99.90;;;;;;5075074;28;20392;-76
2022/12/27 02:02:44;;;;;;;2.90;1.00;;;4.20;99.90;;;;;;5070571;28;20985;-76
2022/12/27 02:05:13;;;;;;;7.07;1.70;;;4.20;99.90;;;;;;5066193;28;20431;-76
2022/12/27 02:08:07;;;;;;;1.57;1.10;;;4.20;99.90;;;;;;5057141;28;20533;-77
2022/12/27 02:10:33;;;;;;;2.67;1.47;;;4.20;99.90;;;;;;5057163;28;20470;-76
2022/12/27 02:12:59;;;;;;;6.57;2.37;;;4.20;99.90;;;;;;5075045;28;20415;-76
2022/12/27 02:15:25;;;;;;;6.27;1.57;;;4.30;99.90;;;;;;5074510;28;20439;-76
2022/12/27 02:17:50;;;;;;;4.10;1.60;;;4.30;99.90;;;;;;5057271;28;20499;-76
2022/12/27 02:20:21;;;;;;;6.90;1.20;;;4.30;99.90;;;;;;5056771;28;20178;-76
2022/12/27 02:26:35;;;;;;;1.67;1.10;;;4.30;99.90;;;;;;5074702;28;20412;-77
2022/12/27 02:29:19;;;;;;;5.07;1.63;;;4.40;99.90;;;;;;5074560;28;20473;-76
2022/12/27 02:31:56;;;;;;;7.50;1.60;;;4.40;99.90;;;;;;5056632;28;20412;-76
2022/12/27 02:34:26;;;;;;;6.47;1.60;;;4.40;99.90;;;;;;5056133;28;20565;-76
2022/12/27 02:36:57;;;;;;;8.43;1.57;;;4.40;99.90;;;;;;5074334;28;20945;-76
2022/12/27 02:39:25;;;;;;;6.90;2.27;;;4.40;99.90;;;;;;5056471;28;20412;-76
2022/12/27 02:53:10;;;;;;;1.70;1.10;;;4.50;99.90;;;;;;5076320;28;20432;-76
2022/12/27 02:58:59;;;;;;;3.33;1.60;;;4.50;99.90;;;;;;5075845;28;20876;-77
2022/12/27 03:05:08;;;;;;;2.80;1.00;;;4.50;99.90;;;;;;5074991;28;20786;-78
2022/12/27 03:08:07;;;;;;;1.87;1.20;;;4.50;99.90;;;;;;5057497;28;20933;-77
2022/12/27 03:16:40;;;;;;;4.80;1.77;;;4.50;99.90;;;;;;5074879;28;20423;-78
2022/12/27 03:25:29;;;;;;;3.63;2.40;;;4.50;99.90;;;;;;5073817;28;20467;-77
2022/12/27 03:33:41;;;;;;;1.70;1.13;;;4.50;99.90;;;;;;5074114;28;20392;-76
2022/12/27 03:39:23;;;;;;;1.80;1.13;;;4.50;99.90;;;;;;5074459;28;20388;-77
2022/12/27 03:44:41;;;;;;;2.33;1.30;;;4.50;99.90;;;;;;5074162;28;20412;-76
2022/12/27 03:47:26;;;;;;;3.17;1.30;;;4.40;99.90;;;;;;5074018;28;20755;-76
2022/12/27 03:50:00;;;;;;;11.03;2.87;;;4.40;99.90;;;;;;5074200;28;20404;-76
2022/12/27 03:52:59;;;;;;;6.80;2.00;;;4.50;99.90;;;;;;5056029;28;20417;-76
2022/12/27 03:55:25;;;;;;;2.53;1.20;;;4.50;99.90;;;;;;5056400;28;20980;-77
2022/12/27 03:57:50;;;;;;;4.40;1.63;;;4.60;99.90;;;;;;5057209;28;20421;-76
2022/12/27 04:00:16;;;;;;;6.20;1.73;;;4.50;99.90;;;;;;5074929;28;20174;-76
2022/12/27 04:02:42;;;;;;;9.90;3.93;;;4.50;99.90;;;;;;5056828;28;20288;-76
2022/12/27 04:05:08;;;;;;;21.07;3.73;;;4.50;99.90;;;;;;5073606;28;20193;-77
2022/12/27 04:07:33;;;;;;;7.63;1.70;;;4.50;99.90;;;;;;5074300;28;20170;-76
2022/12/27 04:34:43;;;;;;;6.10;1.90;;;4.60;99.90;;;;;;5072787;28;20435;-79
2022/12/27 04:37:11;;;;;;;2.37;1.67;;;4.60;99.90;;;;;;5072929;28;20405;-76
2022/12/27 04:39:37;;;;;;;9.83;1.97;;;4.60;99.90;;;;;;5072532;28;20409;-77
2022/12/27 04:56:00;;;;;;;4.07;1.97;;;4.60;99.90;;;;;;5073807;28;20492;-76
2022/12/27 04:58:26;;;;;;;3.17;1.70;;;4.60;99.90;;;;;;5071976;28;20408;-76
2022/12/27 05:03:37;;;;;;;6.63;1.00;;;4.70;99.90;;;;;;5072591;28;20509;-76
2022/12/27 05:06:03;;;;;;;3.60;1.20;;;4.70;99.90;;;;;;5072371;28;20424;-76
2022/12/27 05:14:00;;;;;;;3.17;1.10;;;4.70;99.90;;;;;;5071964;28;20975;-76
2022/12/27 05:16:29;;;;;;;8.43;1.50;;;4.70;99.90;;;;;;5071735;28;20941;-76
2022/12/27 05:18:55;;;;;;;3.90;2.10;;;4.80;99.90;;;;;;5072388;28;20417;-77
2022/12/27 05:21:21;;;;;;;3.70;1.57;;;4.80;99.90;;;;;;5073431;28;20397;-78
2022/12/27 05:26:31;;;;;;;2.90;1.10;;;4.80;99.90;;;;;;5072974;28;20668;-77
2022/12/27 05:28:58;;;;;;;3.90;1.70;;;4.90;99.90;;;;;;5055486;28;20428;-76
2022/12/27 05:31:25;;;;;;;10.53;1.70;;;4.80;99.90;;;;;;5074259;28;20471;-76
2022/12/27 05:33:52;;;;;;;2.07;1.03;;;4.90;99.90;;;;;;5059656;28;20409;-79
2022/12/27 05:36:18;;;;;;;11.43;1.70;;;4.80;99.90;;;;;;5076606;28;20843;-77
2022/12/27 05:38:44;;;;;;;3.13;1.40;;;4.80;99.90;;;;;;5077105;28;20430;-76
2022/12/27 05:41:09;;;;;;;5.43;1.20;;;4.80;99.90;;;;;;5075885;28;20479;-75
2022/12/27 05:43:35;;;;;;;3.40;1.57;;;4.80;99.90;;;;;;5075697;28;20206;-77
2022/12/27 05:46:03;;;;;;;10.07;1.73;;;4.70;99.90;;;;;;5075991;28;20233;-78
2022/12/27 05:48:28;;;;;;;5.10;2.00;;;4.70;99.90;;;;;;5076271;28;20497;-77
2022/12/27 05:50:54;;;;;;;3.40;1.30;;;4.60;99.90;;;;;;5076326;28;20397;-77
2022/12/27 05:53:19;;;;;;;2.57;1.50;;;4.70;99.90;;;;;;5076262;28;20544;-78
2022/12/27 05:55:55;;;;;;;3.93;1.60;;;4.70;99.90;;;;;;5075782;28;20190;-77
2022/12/27 05:58:21;;;;;;;1.30;1.03;;;4.70;99.90;;;;;;5058609;28;20178;-77
2022/12/27 06:00:46;;;;;;;13.00;4.80;;;4.70;99.90;;;;;;5076016;28;20423;-77
2022/12/27 06:03:12;;;;;;;4.00;1.90;;;4.70;99.90;;;;;;5076174;28;20194;-77
2022/12/27 06:05:37;;;;;;;3.23;2.07;;;4.80;99.90;;;;;;5058077;28;20273;-77
2022/12/27 06:08:03;;;;;;;10.23;2.57;;;4.70;99.90;;;;;;5063691;28;20265;-77
2022/12/27 06:10:29;;;;;;;7.37;1.40;;;4.70;99.90;;;;;;5066244;28;20197;-78
2022/12/27 06:12:54;;;;;;;2.17;1.33;;;4.70;99.90;;;;;;5066520;28;20688;-77
2022/12/27 06:15:20;;;;;;;4.93;1.73;;;4.80;99.90;;;;;;5059670;28;20562;-76
2022/12/27 06:17:45;;;;;;;5.53;1.40;;;4.70;99.90;;;;;;5075922;28;20185;-76
2022/12/27 06:20:11;;;;;;;3.20;1.50;;;4.70;99.90;;;;;;5074920;28;20166;-76
2022/12/27 06:22:36;;;;;;;2.73;1.17;;;4.70;99.90;;;;;;5057003;28;20662;-76
2022/12/27 06:25:02;;;;;;;2.87;1.57;;;4.70;99.90;;;;;;5075440;28;20189;-76
2022/12/27 06:27:28;;;;;;;13.03;2.43;;;4.70;99.90;;;;;;5057041;28;20253;-76
2022/12/27 06:29:53;;;;;;;4.40;2.10;;;4.70;99.90;;;;;;5075575;28;20181;-76
2022/12/27 06:32:19;;;;;;;3.30;2.03;;;4.70;99.90;;;;;;5075338;28;20170;-76
2022/12/27 06:34:44;;;;;;;5.17;1.77;;;4.70;99.90;;;;;;5074124;28;20193;-76
2022/12/27 06:37:11;;;;;;;10.93;1.73;;;4.70;99.90;;;;;;5074604;28;20166;-76
2022/12/27 06:39:36;;;;;;;7.50;2.10;;;4.70;99.90;;;;;;5074590;28;20172;-76
2022/12/27 06:42:02;;;;;;;9.30;1.90;;;4.70;99.90;;;;;;5073884;28;20448;-77
2022/12/27 06:44:27;;;;;;;4.40;2.03;;;4.70;99.90;;;;;;5052734;28;20254;-76
2022/12/27 06:46:53;;;;;;;3.17;2.77;;;4.70;99.90;;;;;;5074230;28;20198;-76
2022/12/27 06:49:18;;;;;;;3.60;2.00;;;4.80;99.90;;;;;;5078689;28;20162;-78
2022/12/27 06:51:44;;;;;;;7.83;3.03;;;4.70;99.90;;;;;;5078737;28;20181;-75
2022/12/27 06:54:09;;;;;;;5.40;1.90;;;4.70;99.90;;;;;;5056975;28;20206;-78
2022/12/27 06:56:35;;;;;;;4.27;2.37;;;4.70;99.90;;;;;;5076784;28;20258;-76
2022/12/27 06:59:00;;;;;;;2.50;1.30;;;4.70;99.90;;;;;;5075176;28;20634;-76
2022/12/27 07:01:27;;;;;;;7.13;2.47;;;4.70;99.90;;;;;;5075535;28;20212;-77
2022/12/27 07:03:55;;;;;;;2.80;1.53;;;4.70;99.90;;;;;;5075644;28;20201;-77
2022/12/27 07:06:22;;;;;;;3.93;1.40;;;4.70;99.90;;;;;;5036645;28;20782;-77
2022/12/27 07:08:49;;;;;;;2.37;1.60;;;4.70;99.90;;;;;;5041651;28;20416;-78
2022/12/27 07:11:16;;;;;;;2.40;1.50;;;4.70;99.90;;;;;;5039088;28;20425;-76
2022/12/27 07:13:47;;;;;;;8.73;1.67;;;4.60;99.90;;;;;;5054202;28;20414;-76
2022/12/27 07:16:15;;;;;;;3.10;1.00;;;4.60;99.90;;;;;;5055268;28;20429;-77
2022/12/27 07:18:41;;;;;;;4.30;1.77;;;4.50;99.90;;;;;;5037413;28;20418;-77
2022/12/27 07:21:12;;;;;;;11.20;3.50;;;4.50;99.90;;;;;;5055010;28;20428;-77
2022/12/27 07:23:37;;;;;;;3.00;1.53;;;4.50;99.90;;;;;;5054657;28;20202;-77
2022/12/27 07:26:09;;;;;;;2.83;1.40;;;4.50;99.90;;;;;;5054598;28;20447;-77
2022/12/27 07:28:36;;;;;;;6.20;1.13;;;4.50;99.90;;;;;;5056069;28;20178;-77
2022/12/27 07:31:07;;;;;;;9.20;1.50;;;4.50;99.90;;;;;;5054837;28;20405;-77
2022/12/27 07:33:32;;;;;;;3.27;1.73;;;4.40;99.90;;;;;;5070041;28;20420;-77
2022/12/27 07:35:59;;;;;;;4.60;1.90;;;4.40;99.90;;;;;;5073400;28;20432;-77
2022/12/27 07:38:25;;;;;;;7.77;1.60;;;4.40;99.90;;;;;;5074870;28;20197;-77
2022/12/27 07:40:50;;;;;;;6.30;1.70;;;4.40;99.90;;;;;;5074613;28;20412;-77
2022/12/27 07:43:16;;;;;;;2.47;1.47;;;4.50;99.90;;;;;;5074643;28;20707;-77
2022/12/27 07:45:41;;;;;;;3.17;1.50;;;4.50;99.90;;;;;;5056758;28;20209;-77
2022/12/27 07:48:07;;;;;;;1.90;1.23;;;4.50;99.90;;;;;;5074377;28;20166;-77
2022/12/27 07:50:32;;;;;;;2.80;1.40;;;4.50;99.90;;;;;;5056512;28;20189;-77
2022/12/27 07:52:58;;;;;;;2.73;1.27;;;4.50;99.90;;;;;;5054505;28;20523;-77
2022/12/27 07:55:23;;;;;;;3.63;1.10;;;4.50;99.90;;;;;;5053289;28;20696;-77
2022/12/27 07:57:49;;;;;;;1.97;0.93;;;4.40;99.90;;;;;;5055234;28;20178;-78
2022/12/27 08:00:15;;;;;;;2.27;1.60;;;4.50;99.90;;;;;;5057484;28;20282;-76
2022/12/27 08:02:42;;;;;;;4.53;1.93;;;4.50;99.90;;;;;;5052792;28;20285;-76
2022/12/27 08:05:08;;;;;;;2.00;1.47;;;4.60;99.90;;;;;;5062808;28;20188;-76
2022/12/27 08:07:34;;;;;;;3.03;1.20;;;4.60;99.90;;;;;;5073001;28;20984;-76
2022/12/27 08:09:59;;;;;;;5.67;1.60;;;4.70;99.90;;;;;;5072967;28;20404;-76
2022/12/27 08:12:28;;;;;;;6.43;1.40;;;4.80;99.90;;;;;;5074597;28;20415;-76
2022/12/27 08:14:54;;;;;;;8.23;2.10;;;4.80;99.90;;;;;;5054842;28;20200;-77
2022/12/27 08:17:22;;;;;;;3.50;1.30;;;5.00;99.90;;;;;;5073662;28;20507;-77
2022/12/27 08:19:50;;;;;;;5.77;2.00;;;5.20;99.90;;;;;;5055958;28;20178;-77
2022/12/27 08:22:16;;;;;;;2.23;1.30;;;5.40;99.90;;;;;;5073526;28;20785;-77
2022/12/27 08:24:42;;;;;;;5.10;2.00;;;5.50;99.90;;;;;;5072987;28;20435;-77
2022/12/27 08:27:09;;;;;;;5.13;1.57;;;6.00;99.90;;;;;;5055998;28;20269;-77
2022/12/27 08:29:34;;;;;;;2.80;1.53;;;7.00;99.90;;;;;;5055565;28;20440;-77
2022/12/27 08:32:00;;;;;;;4.17;1.60;;;7.60;99.90;;;;;;5073529;28;20481;-77
2022/12/27 08:34:25;;;;;;;2.87;1.47;;;7.80;99.90;;;;;;5073578;28;20572;-77
2022/12/27 08:36:52;;;;;;;2.50;1.23;;;7.50;99.90;;;;;;5073489;28;20667;-77
2022/12/27 08:39:18;;;;;;;1.40;1.07;;;7.40;99.90;;;;;;5054669;28;20177;-77
2022/12/27 08:41:44;;;;;;;5.63;1.37;;;8.10;99.90;;;;;;5054440;28;20413;-76
2022/12/27 08:44:10;;;;;;;5.90;1.57;;;8.80;99.90;;;;;;5054659;28;20472;-77
2022/12/27 08:46:36;;;;;;;6.30;1.30;;;9.50;99.90;;;;;;5054567;28;20787;-77
2022/12/27 08:49:04;;;;;;;2.83;1.60;;;10.20;99.90;;;;;;5072910;28;20412;-77
2022/12/27 08:51:30;;;;;;;6.60;1.40;;;11.00;99.90;;;;;;5072878;28;20620;-77
2022/12/27 08:53:56;;;;;;;3.93;1.57;;;11.90;99.90;;;;;;5072950;28;20487;-77
2022/12/27 08:56:21;;;;;;;8.33;2.13;;;12.30;99.90;;;;;;5072489;28;20223;-77
2022/12/27 08:58:50;;;;;;;4.33;1.43;;;12.90;99.90;;;;;;5067830;28;20178;-75
2022/12/27 09:01:16;;;;;;;1.73;0.93;;;13.40;99.90;;;;;;5050991;28;20189;-76
2022/12/27 09:03:41;;;;;;;6.03;1.40;;;13.40;99.90;;;;;;5052119;28;20452;-76
2022/12/27 09:06:14;;;;;;;5.47;1.70;;;13.50;99.90;;;;;;5059913;28;20487;-76
2022/12/27 09:08:40;;;;;;;3.53;1.30;;;13.50;99.90;;;;;;5079187;28;20158;-77
2022/12/27 09:11:16;;;;;;;2.90;1.27;;;13.90;99.90;;;;;;5079536;28;20939;-77
2022/12/27 09:13:42;;;;;;;4.93;1.47;;;14.50;99.90;;;;;;5061696;28;20410;-77
2022/12/27 09:16:11;;;;;;;12.83;2.17;;;14.50;99.40;;;;;;5061184;28;20428;-77
2022/12/27 09:18:43;;;;;;;3.40;1.77;;;14.40;99.90;;;;;;5061381;28;20412;-76
2022/12/27 09:21:12;;;;;;;6.20;1.73;;;13.80;99.90;;;;;;5061305;28;20408;-77
2022/12/27 09:23:38;;;;;;;3.00;1.50;;;14.00;99.90;;;;;;5079458;28;20444;-77
2022/12/27 09:26:06;;;;;;;4.67;1.93;;;14.50;99.90;;;;;;5079498;28;20515;-77
2022/12/27 09:28:32;;;;;;;1.90;1.17;;;14.50;99.90;;;;;;5061547;28;20639;-76
2022/12/27 09:30:57;;;;;;;2.07;1.50;;;14.70;99.90;;;;;;5078425;28;20415;-76
2022/12/27 09:33:23;;;;;;;2.50;1.23;;;15.00;96.80;;;;;;5078705;28;20162;-77
2022/12/27 09:35:49;;;;;;;2.13;1.50;;;15.20;95.20;;;;;;5060888;28;20186;-77
2022/12/27 09:38:14;;;;;;;3.70;1.40;;;15.40;91.50;;;;;;5061097;28;20773;-77
2022/12/27 09:40:51;;;;;;;4.97;1.80;;;15.70;91.70;;;;;;5060400;28;20952;-76
2022/12/27 09:43:18;;;;;;;6.97;1.77;;;15.30;86.60;;;;;;5060635;28;20209;-76
2022/12/27 09:45:48;;;;;;;2.33;1.50;;;15.90;90.70;;;;;;5077865;28;20507;-76
2022/12/27 09:48:30;;;;;;;2.93;1.27;;;15.80;84.00;;;;;;5061100;28;20426;-77
2022/12/27 09:50:59;;;;;;;3.20;1.10;;;16.00;87.10;;;;;;5079467;28;20400;-77
2022/12/27 09:53:58;;;;;;;4.30;1.43;;;16.50;84.20;;;;;;5079226;28;20408;-77
2022/12/27 09:56:27;;;;;;;5.43;1.67;;;16.90;77.20;;;;;;5078689;28;20420;-77
2022/12/27 09:59:12;;;;;;;5.20;1.60;;;16.40;75.10;;;;;;5060884;28;20408;-77
2022/12/27 10:01:43;;;;;;;5.27;1.47;;;16.60;75.20;;;;;;5078999;28;20396;-77
2022/12/27 10:04:14;;;;;;;6.70;1.60;;;16.80;73.80;;;;;;5060787;28;20502;-77
2022/12/27 10:06:49;;;;;;;2.63;1.87;;;16.70;73.50;;;;;;5061360;28;20413;-77
2022/12/27 10:09:42;;;;;;;7.23;1.67;;;17.10;74.80;;;;;;5076060;28;20950;-75
2022/12/27 10:12:53;;;;;;;5.90;2.23;;;18.50;73.20;;;;;;5060565;28;20939;-76
2022/12/27 10:15:37;;;;;;;3.20;1.30;;;20.10;66.60;;;;;;5059508;28;20459;-76
2022/12/27 10:18:26;;;;;;;3.53;2.40;;;20.80;57.70;;;;;;5056606;28;20789;-77
2022/12/27 10:21:10;;;;;;;6.20;1.53;;;21.70;58.50;;;;;;5056986;28;20409;-75
2022/12/27 10:23:39;;;;;;;8.70;2.00;;;22.00;53.10;;;;;;5074660;28;20451;-76
2022/12/27 10:26:11;;;;;;;6.40;2.17;;;22.40;53.90;;;;;;5074414;28;20511;-76
2022/12/27 10:28:43;;;;;;;2.93;1.50;;;22.50;52.00;;;;;;5075271;28;20426;-77
2022/12/27 10:31:14;;;;;;;2.40;1.70;;;22.50;50.50;;;;;;5056974;28;20547;-77
2022/12/27 10:33:42;;;;;;;4.50;1.70;;;22.60;51.50;;;;;;5074623;28;20460;-77
2022/12/27 10:36:29;;;;;;;5.47;2.10;;;23.20;49.90;;;;;;5056265;28;20511;-77
2022/12/27 10:38:55;;;;;;;2.53;1.30;;;23.00;49.20;;;;;;5056683;28;20803;-77
2022/12/27 10:41:23;;;;;;;3.23;1.40;;;23.20;49.20;;;;;;5056538;28;20476;-76
2022/12/27 10:43:53;;;;;;;5.63;1.57;;;22.70;48.90;;;;;;5074482;28;20447;-76
2022/12/27 10:46:21;;;;;;;2.90;1.13;;;22.00;48.10;;;;;;5073998;28;20420;-76
2022/12/27 10:49:00;;;;;;;4.33;1.10;;;21.50;49.30;;;;;;5056188;28;20408;-76
2022/12/27 10:51:33;;;;;;;2.30;1.60;;;22.00;50.10;;;;;;5056144;28;20415;-76
2022/12/27 10:54:13;;;;;;;5.40;1.70;;;23.10;50.70;;;;;;5074186;28;20404;-76
2022/12/27 10:56:41;;;;;;;6.80;2.07;;;23.80;48.10;;;;;;5056099;28;20768;-76
2022/12/27 10:59:24;;;;;;;4.20;1.60;;;22.10;46.60;;;;;;5073962;28;20416;-76
2022/12/27 11:01:59;;;;;;;4.07;1.40;;;19.80;47.90;;;;;;5073832;28;20405;-75
2022/12/27 11:04:25;;;;;;;2.90;1.50;;;18.10;50.50;;;;;;5073419;28;20508;-75
2022/12/27 11:07:02;;;;;;;1.67;1.20;;;16.70;52.80;;;;;;5073846;28;20400;-76
2022/12/27 11:09:31;;;;;;;2.80;1.33;;;15.90;55.40;;;;;;5073863;28;20400;-76
2022/12/27 11:12:17;;;;;;;2.07;1.13;;;14.60;57.60;;;;;;5055717;28;20415;-76
2022/12/27 11:15:25;;;;;;;1.97;1.17;;;13.50;63.20;;;;;;5073398;28;20412;-76
2022/12/27 11:17:54;;;;;;;3.93;1.37;;;13.10;80.90;;;;;;5001887;28;20396;-76
2022/12/27 11:20:29;;;;;;;2.17;1.20;;;12.40;99.90;;;;;;5072264;28;20401;-76
2022/12/27 11:22:56;;;;;;;2.10;1.20;;;12.10;99.90;;;;;;5062133;28;20448;-76
2022/12/27 11:25:24;;;;;;;6.13;3.57;;;11.90;99.90;;;;;;5073200;28;20432;-76
2022/12/27 11:27:53;;;;;;;5.00;2.40;;;11.80;99.90;;;;;;5072549;28;20492;-76
2022/12/27 11:30:32;;;;;;;3.33;0.97;;;11.50;99.90;;;;;;5055361;28;20431;-76
2022/12/27 11:33:15;;;;;;;2.53;0.93;;;11.40;99.90;;;;;;5055302;28;20427;-75
2022/12/27 11:35:48;;;;;;;3.70;1.40;;;11.40;99.90;;;;;;5072965;28;20511;-76
2022/12/27 11:38:25;;;;;;;3.00;1.27;;;11.50;99.90;;;;;;5055352;28;20419;-76
2022/12/27 11:41:32;;;;;;;3.60;1.33;;;12.10;99.90;;;;;;5055755;28;20416;-75
2022/12/27 11:44:19;;;;;;;6.70;1.63;;;12.00;99.90;;;;;;5054370;28;20510;-76
2022/12/27 11:47:06;;;;;;;3.40;0.97;;;11.80;99.90;;;;;;5073451;28;20419;-76
2022/12/27 11:49:36;;;;;;;3.83;1.37;;;11.70;99.90;;;;;;5055175;28;20475;-76
2022/12/27 11:52:42;;;;;;;8.87;1.03;;;11.70;99.90;;;;;;5072959;28;20910;-76
2022/12/27 11:55:16;;;;;;;3.10;1.33;;;12.80;99.90;;;;;;5054692;28;20942;-76
2022/12/27 11:57:56;;;;;;;6.40;1.37;;;14.50;99.90;;;;;;5054835;28;20459;-76
2022/12/27 12:00:25;;;;;;;3.17;1.63;;;16.00;99.90;;;;;;5072786;28;20462;-76
2022/12/27 12:03:15;;;;;;;2.53;1.30;;;17.50;95.30;;;;;;5072714;28;20817;-77
2022/12/27 12:05:43;;;;;;;2.60;1.30;;;19.90;86.70;;;;;;5072225;28;20795;-76
2022/12/27 12:08:27;;;;;;;2.43;1.27;;;21.70;61.20;;;;;;5072627;28;20407;-76
2022/12/27 12:11:04;;;;;;;12.50;7.50;;;22.30;56.20;;;;;;5054630;28;20610;-76
2022/12/27 12:14:18;;;;;;;5.80;1.50;;;23.00;55.80;;;;;;5054617;28;20789;-76
2022/12/27 12:17:11;;;;;;;3.27;1.43;;;23.20;52.70;;;;;;4996143;28;20496;-76
2022/12/27 12:19:57;;;;;;;2.23;1.20;;;21.70;49.90;;;;;;5054638;28;20415;-76
2022/12/27 12:22:37;;;;;;;5.67;1.40;;;19.50;50.90;;;;;;5072268;28;20925;-76
2022/12/27 12:25:03;;;;;;;2.70;1.20;;;17.70;53.60;;;;;;5072055;28;20429;-76
2022/12/27 12:27:43;;;;;;;4.63;1.23;;;16.80;56.40;;;;;;5072528;28;20467;-76
2022/12/27 12:30:15;;;;;;;3.10;1.23;;;15.70;58.70;;;;;;5072132;28;20178;-76
2022/12/27 12:33:05;;;;;;;8.10;1.53;;;14.60;63.90;;;;;;5067077;28;20428;-76
2022/12/27 12:35:45;;;;;;;5.33;1.30;;;13.70;80.80;;;;;;5051839;28;20516;-75
2022/12/27 12:38:19;;;;;;;8.07;2.43;;;13.20;99.90;;;;;;5052380;28;20449;-75
2022/12/27 12:40:57;;;;;;;4.57;1.23;;;12.40;99.90;;;;;;5051813;28;20402;-76
2022/12/27 12:43:45;;;;;;;5.20;1.77;;;11.80;99.90;;;;;;5050883;28;20487;-76
2022/12/27 12:46:31;;;;;;;3.40;1.37;;;11.50;99.90;;;;;;5052052;28;20509;-74
2022/12/27 12:49:09;;;;;;;4.30;1.63;;;11.40;99.90;;;;;;5052332;28;20406;-74
2022/12/27 12:51:37;;;;;;;4.27;1.80;;;11.00;99.90;;;;;;5052282;28;20451;-76
2022/12/27 12:54:15;;;;;;;4.20;1.67;;;11.10;99.90;;;;;;5052051;28;20416;-77
2022/12/27 12:57:00;;;;;;;1.53;0.97;;;11.30;99.90;;;;;;5052409;28;21000;-76
2022/12/27 12:59:59;;;;;;;1.97;1.20;;;11.70;99.90;;;;;;5052165;28;20407;-76
2022/12/27 13:02:43;;;;;;;2.53;1.43;;;11.70;99.90;;;;;;5010804;28;20982;-76
2022/12/27 13:05:22;;;;;;;3.97;2.20;;;12.10;99.90;;;;;;5053518;28;20571;-76
2022/12/27 13:07:52;;;;;;;3.43;1.40;;;13.00;99.90;;;;;;5054103;28;20499;-76
2022/12/27 13:10:43;;;;;;;4.50;1.00;;;13.80;99.90;;;;;;5071946;28;20404;-76
2022/12/27 13:13:43;;;;;;;4.50;1.30;;;13.60;99.90;;;;;;5053987;28;20413;-76
2022/12/27 13:16:37;;;;;;;2.67;0.90;;;13.10;99.90;;;;;;5071604;28;20478;-76
2022/12/27 13:19:03;;;;;;;3.17;1.23;;;13.40;99.90;;;;;;5053831;28;20412;-76
2022/12/27 13:21:38;;;;;;;7.60;2.70;;;14.40;99.90;;;;;;5071972;28;20946;-77
2022/12/27 13:24:23;;;;;;;7.60;1.73;;;14.90;99.90;;;;;;5071915;28;20185;-76
2022/12/27 13:27:11;;;;;;;5.63;1.10;;;14.90;93.60;;;;;;5071815;28;20737;-76
2022/12/27 13:29:53;;;;;;;4.93;1.20;;;14.20;93.60;;;;;;5071709;28;20823;-76
2022/12/27 13:32:27;;;;;;;7.43;1.43;;;13.60;99.90;;;;;;5071595;28;20400;-76
2022/12/27 13:35:17;;;;;;;2.40;1.20;;;12.80;99.90;;;;;;5053485;28;20515;-77
2022/12/27 13:38:12;;;;;;;4.57;1.20;;;12.40;99.90;;;;;;5053752;28;20427;-77
2022/12/27 13:40:43;;;;;;;4.80;0.90;;;12.10;99.90;;;;;;5050268;28;20437;-76
2022/12/27 13:43:53;;;;;;;3.93;1.33;;;11.80;99.90;;;;;;5068278;28;20443;-77
2022/12/27 13:46:56;;;;;;;5.23;1.20;;;11.70;99.90;;;;;;5071220;28;20963;-76
2022/12/27 13:49:46;;;;;;;3.77;1.30;;;11.40;99.90;;;;;;5053499;28;20768;-76
2022/12/27 13:52:27;;;;;;;2.23;1.33;;;11.20;99.90;;;;;;5073648;28;20428;-77
2022/12/27 13:55:01;;;;;;;3.40;1.77;;;11.00;99.90;;;;;;5074986;28;20511;-76
2022/12/27 13:57:35;;;;;;;1.30;0.80;;;10.80;99.90;;;;;;5075350;28;20407;-76
2022/12/27 14:00:16;;;;;;;3.17;0.90;;;10.80;99.90;;;;;;5057435;28;20403;-75
2022/12/27 14:03:00;;;;;;;4.43;1.10;;;10.70;99.90;;;;;;5075402;28;20806;-75
2022/12/27 14:05:51;;;;;;;11.23;1.20;;;10.70;99.90;;;;;;5074849;28;20450;-76
2022/12/27 14:08:55;;;;;;;14.83;7.50;;;10.60;99.90;;;;;;5057175;28;20443;-76
2022/12/27 14:11:38;;;;;;;8.40;1.20;;;10.50;99.90;;;;;;5074217;28;20466;-77
2022/12/27 14:14:05;;;;;;;2.07;0.87;;;10.60;99.90;;;;;;5075007;28;20789;-76
2022/12/27 14:17:04;;;;;;;5.30;1.30;;;10.70;99.90;;;;;;5074574;28;20420;-76
2022/12/27 14:19:45;;;;;;;2.47;1.50;;;10.50;99.90;;;;;;5074567;28;20405;-76
2022/12/27 14:22:46;;;;;;;6.47;2.77;;;10.50;99.90;;;;;;5074704;28;20415;-76
2022/12/27 14:25:35;;;;;;;12.20;4.30;;;10.40;99.90;;;;;;5023213;28;20460;-76
2022/12/27 14:28:17;;;;;;;2.33;1.50;;;10.20;99.90;;;;;;5056762;28;20405;-76
2022/12/27 14:31:09;;;;;;;2.80;1.10;;;10.10;99.90;;;;;;5074759;28;20824;-76
2022/12/27 14:34:03;;;;;;;5.00;2.00;;;10.10;99.90;;;;;;5056616;28;20504;-76
2022/12/27 14:36:49;;;;;;;3.30;2.20;;;10.00;99.90;;;;;;5074195;28;20524;-76
2022/12/27 14:39:45;;;;;;;2.50;1.23;;;9.90;99.90;;;;;;5074693;28;20401;-76
2022/12/27 14:42:26;;;;;;;1.97;1.10;;;9.80;99.90;;;;;;5056063;28;20432;-76
2022/12/27 14:45:19;;;;;;;2.10;1.40;;;9.90;99.90;;;;;;5073993;28;20787;-76
2022/12/27 14:48:07;;;;;;;3.57;1.50;;;10.00;99.90;;;;;;5055725;28;20915;-75
2022/12/27 14:50:55;;;;;;;4.43;2.27;;;10.00;99.90;;;;;;5075507;28;20389;-76
2022/12/27 14:53:50;;;;;;;6.43;2.00;;;10.10;99.90;;;;;;5056330;28;20461;-76
2022/12/27 14:56:32;;;;;;;4.87;2.40;;;10.10;99.90;;;;;;5056128;28;20420;-77
2022/12/27 14:59:25;;;;;;;5.23;2.23;;;10.10;99.90;;;;;;5074413;28;20434;-77
2022/12/27 15:02:00;;;;;;;6.20;2.73;;;10.10;99.90;;;;;;5073910;28;20405;-76